createdAt,value
2023-03-18T00:51:55.235Z,2.08
2023-03-18T00:54:24.843Z,2.04
2023-03-18T00:56:51.886Z,2.09
2023-03-18T00:59:18.926Z,1.88
2023-03-18T01:01:45.631Z,2.02
2023-03-18T01:04:12.948Z,2.00
2023-03-18T01:06:40.151Z,1.92
2023-03-18T01:09:09.022Z,2.02
2023-03-18T01:11:36.394Z,1.97
2023-03-18T01:14:03.721Z,1.93
2023-03-18T01:16:30.849Z,1.90
2023-03-18T01:18:57.813Z,1.86
2023-03-18T01:21:24.859Z,1.89
2023-03-18T01:23:51.560Z,1.89
2023-03-18T01:26:18.511Z,1.91
2023-03-18T01:28:45.782Z,1.92
2023-03-18T01:31:13.000Z,1.92
2023-03-18T01:33:40.463Z,1.85
2023-03-18T01:36:08.334Z,1.98
2023-03-18T01:38:35.085Z,1.90
2023-03-18T01:41:03.481Z,1.98
2023-03-18T01:43:34.174Z,1.75
2023-03-18T01:46:22.417Z,2.05
2023-03-18T01:48:49.873Z,1.89
2023-03-18T01:51:17.457Z,1.89
2023-03-18T01:53:46.302Z,1.89
2023-03-18T01:56:14.128Z,1.87
2023-03-18T01:58:43.723Z,1.85
2023-03-18T02:01:22.751Z,1.83
2023-03-18T02:03:51.210Z,1.84
2023-03-18T02:06:18.207Z,1.76
2023-03-18T02:08:45.413Z,1.59
2023-03-18T02:11:13.645Z,1.79
2023-03-18T02:13:43.212Z,1.81
2023-03-18T02:16:24.160Z,1.68
2023-03-18T02:18:56.628Z,1.77
2023-03-18T02:21:45.596Z,1.80
2023-03-18T02:24:30.832Z,1.81
2023-03-18T02:27:00.580Z,1.85
2023-03-18T02:29:32.139Z,1.75
2023-03-18T02:32:02.312Z,1.78
2023-03-18T02:34:29.976Z,1.68
2023-03-18T02:36:57.505Z,1.59
2023-03-18T02:39:24.208Z,1.70
2023-03-18T02:41:51.345Z,1.68
2023-03-18T02:44:18.901Z,1.64
2023-03-18T02:46:58.088Z,1.68
2023-03-18T02:49:26.294Z,1.70
2023-03-18T02:51:53.469Z,1.61
2023-03-18T02:54:26.681Z,1.56
2023-03-18T02:56:53.633Z,1.68
2023-03-18T02:59:21.284Z,1.67
2023-03-18T03:01:50.502Z,1.53
2023-03-18T03:04:17.845Z,1.57
2023-03-18T03:06:44.865Z,1.43
2023-03-18T03:09:14.261Z,1.60
2023-03-18T03:11:42.991Z,1.63
2023-03-18T03:14:10.639Z,1.61
2023-03-18T03:16:37.930Z,1.52
2023-03-18T03:19:06.049Z,1.59
2023-03-18T03:21:36.053Z,1.55
2023-03-18T03:24:15.992Z,1.49
2023-03-18T03:26:42.698Z,1.19
2023-03-18T03:29:10.039Z,1.34
2023-03-18T03:31:36.909Z,1.56
2023-03-18T03:34:04.032Z,1.43
2023-03-18T03:36:30.920Z,1.42
2023-03-18T03:38:57.563Z,1.36
2023-03-18T03:41:24.280Z,1.44
2023-03-18T03:43:51.070Z,1.37
2023-03-18T03:46:17.781Z,1.44
2023-03-18T03:48:45.102Z,1.41
2023-03-18T03:51:12.008Z,1.44
2023-03-18T03:53:39.591Z,1.49
2023-03-18T03:56:07.723Z,1.34
2023-03-18T03:58:34.881Z,1.39
2023-03-18T04:01:01.880Z,1.32
2023-03-18T04:03:28.672Z,1.33
2023-03-18T04:05:56.555Z,1.37
2023-03-18T04:08:23.442Z,1.36
2023-03-18T04:10:50.196Z,1.31
2023-03-18T04:13:17.301Z,1.35
2023-03-18T04:15:44.042Z,1.26
2023-03-18T04:18:11.044Z,1.30
2023-03-18T04:20:39.337Z,1.35
2023-03-18T04:23:08.170Z,1.37
2023-03-18T04:25:35.471Z,1.26
2023-03-18T04:28:02.821Z,1.19
2023-03-18T04:30:30.960Z,1.37
2023-03-18T04:32:58.080Z,1.33
2023-03-18T04:35:24.832Z,1.26
2023-03-18T04:37:51.767Z,1.18
2023-03-18T04:40:20.119Z,1.31
2023-03-18T04:42:48.350Z,1.35
2023-03-18T04:45:16.603Z,1.34
2023-03-18T04:47:44.589Z,1.34
2023-03-18T04:50:13.389Z,1.31
2023-03-18T04:52:40.606Z,1.37
2023-03-18T04:55:09.500Z,1.36
2023-03-18T04:57:37.788Z,1.39
2023-03-18T05:00:07.036Z,1.36
2023-03-18T05:02:34.010Z,1.34
2023-03-18T05:05:01.445Z,1.39
2023-03-18T05:07:28.435Z,1.45
2023-03-18T05:09:55.537Z,1.39
2023-03-18T05:12:22.454Z,1.40
2023-03-18T05:14:49.086Z,1.38
2023-03-18T05:17:16.354Z,1.45
2023-03-18T05:19:47.630Z,1.47
2023-03-18T05:22:18.296Z,1.49
2023-03-18T05:24:46.173Z,1.48
2023-03-18T05:27:18.507Z,1.52
2023-03-18T05:29:46.003Z,1.61
2023-03-18T05:32:13.094Z,1.57
2023-03-18T05:34:40.918Z,1.67
2023-03-18T05:37:10.332Z,1.75
2023-03-18T05:39:37.285Z,1.78
2023-03-18T05:42:04.929Z,1.76
2023-03-18T05:44:31.612Z,1.99
2023-03-18T05:46:58.804Z,1.84
2023-03-18T05:49:25.577Z,1.86
2023-03-18T05:51:54.770Z,1.79
2023-03-18T05:54:22.062Z,1.83
2023-03-18T05:56:50.284Z,1.79
2023-03-18T05:59:17.041Z,1.76
2023-03-18T06:01:44.801Z,1.89
2023-03-18T06:04:11.742Z,1.87
2023-03-18T06:06:40.607Z,1.89
2023-03-18T06:09:09.091Z,1.83
2023-03-18T06:11:35.864Z,1.79
2023-03-18T06:14:04.963Z,1.81
2023-03-18T06:16:33.115Z,1.85
2023-03-18T06:19:00.136Z,1.70
2023-03-18T06:21:27.431Z,1.75
2023-03-18T06:23:54.508Z,1.77
2023-03-18T06:26:22.141Z,1.94
2023-03-18T06:28:48.850Z,2.03
2023-03-18T06:31:15.709Z,2.06
2023-03-18T06:33:42.710Z,1.93
2023-03-18T06:36:10.768Z,1.97
2023-03-18T06:38:38.206Z,2.02
2023-03-18T06:41:05.154Z,1.97
2023-03-18T06:43:32.047Z,2.00
2023-03-18T06:45:59.631Z,1.89
2023-03-18T06:48:26.555Z,1.94
2023-03-18T06:50:54.589Z,1.91
2023-03-18T06:53:21.489Z,1.90
2023-03-18T06:55:48.690Z,1.92
2023-03-18T06:58:15.711Z,2.13
2023-03-18T07:00:45.463Z,2.24
2023-03-18T07:03:12.224Z,2.04
2023-03-18T07:05:38.964Z,2.24
2023-03-18T07:08:05.776Z,2.30
2023-03-18T07:10:32.758Z,2.26
2023-03-18T07:13:00.256Z,2.25
2023-03-18T07:15:27.333Z,2.18
2023-03-18T07:17:54.784Z,2.08
2023-03-18T07:20:22.725Z,2.07
2023-03-18T07:22:49.788Z,2.15
2023-03-18T07:25:16.708Z,2.05
2023-03-18T07:27:44.812Z,2.15
2023-03-18T07:30:12.214Z,2.33
2023-03-18T07:32:38.934Z,2.31
2023-03-18T07:35:06.695Z,2.23
2023-03-18T07:37:33.600Z,2.31
2023-03-18T07:40:00.456Z,2.16
2023-03-18T07:42:27.183Z,2.35
2023-03-18T07:44:53.924Z,2.35
2023-03-18T07:47:21.052Z,2.44
2023-03-18T07:49:47.876Z,2.50
2023-03-18T07:52:15.236Z,2.54
2023-03-18T07:54:42.062Z,2.64
2023-03-18T07:57:08.933Z,2.67
2023-03-18T07:59:36.774Z,2.79
2023-03-18T08:02:05.049Z,2.78
2023-03-18T08:04:32.383Z,2.73
2023-03-18T08:06:59.171Z,2.79
2023-03-18T08:09:27.754Z,2.97
2023-03-18T08:11:54.741Z,3.09
2023-03-18T08:14:21.552Z,2.82
2023-03-18T08:16:48.246Z,2.85
2023-03-18T08:19:15.287Z,2.96
2023-03-18T08:21:43.001Z,3.14
2023-03-18T08:24:10.058Z,3.33
2023-03-18T08:26:37.122Z,3.32
2023-03-18T08:29:03.942Z,3.33
2023-03-18T08:31:30.869Z,2.84
2023-03-18T08:33:58.329Z,3.27
2023-03-18T08:36:25.524Z,3.24
2023-03-18T08:38:52.205Z,3.62
2023-03-18T08:41:18.836Z,3.38
2023-03-18T08:43:45.851Z,3.52
2023-03-18T08:46:12.540Z,3.53
2023-03-18T08:48:39.543Z,3.37
2023-03-18T08:51:09.594Z,3.40
2023-03-18T08:53:37.759Z,3.39
2023-03-18T08:56:07.024Z,3.56
2023-03-18T08:58:34.854Z,3.72
2023-03-18T09:01:03.689Z,3.73
2023-03-18T09:03:30.844Z,3.69
2023-03-18T09:05:57.880Z,3.69
2023-03-18T09:08:24.483Z,3.35
2023-03-18T09:10:53.821Z,3.52
2023-03-18T09:13:22.410Z,3.63
2023-03-18T09:15:49.366Z,3.62
2023-03-18T09:18:18.375Z,3.53
2023-03-18T09:20:46.105Z,3.62
2023-03-18T09:23:13.982Z,3.54
2023-03-18T09:25:42.756Z,3.63
2023-03-18T09:28:09.916Z,3.53
2023-03-18T09:30:38.012Z,3.67
2023-03-18T09:33:06.882Z,3.53
2023-03-18T09:35:35.515Z,3.53
2023-03-18T09:38:02.515Z,3.76
2023-03-18T09:40:33.586Z,3.60
2023-03-18T09:43:41.220Z,3.79
2023-03-18T09:46:25.022Z,3.80
2023-03-18T09:49:03.681Z,3.60
2023-03-18T09:51:48.710Z,3.57
2023-03-18T09:55:10.906Z,3.42
2023-03-18T09:57:42.437Z,3.68
2023-03-18T10:00:18.372Z,3.71
2023-03-18T10:02:48.051Z,3.53
2023-03-18T10:05:18.424Z,3.69
2023-03-18T10:07:47.480Z,3.83
2023-03-18T10:10:23.599Z,3.70
2023-03-18T10:13:01.299Z,4.03
2023-03-18T10:15:38.516Z,4.07
2023-03-18T10:18:17.824Z,3.85
2023-03-18T10:20:44.431Z,3.83
2023-03-18T10:23:29.332Z,3.99
2023-03-18T10:26:08.376Z,4.07
2023-03-18T10:29:17.238Z,3.92
2023-03-18T10:31:46.664Z,4.09
2023-03-18T10:34:22.909Z,3.84
2023-03-18T10:36:58.271Z,3.95
2023-03-18T10:39:26.034Z,3.83
2023-03-18T10:41:54.635Z,3.70
2023-03-18T10:44:38.141Z,3.74
2023-03-18T10:47:15.764Z,4.05
2023-03-18T10:49:47.435Z,4.24
2023-03-18T10:52:38.174Z,4.46
2023-03-18T10:55:06.054Z,4.51
2023-03-18T10:57:33.466Z,4.35
2023-03-18T11:00:00.187Z,4.13
2023-03-18T11:02:32.570Z,3.96
2023-03-18T11:05:04.871Z,3.84
2023-03-18T11:07:32.539Z,3.87
2023-03-18T11:10:13.331Z,4.06
2023-03-18T11:12:40.214Z,4.34
2023-03-18T11:15:11.099Z,4.30
2023-03-18T11:17:40.022Z,4.05
2023-03-18T11:20:22.202Z,4.03
2023-03-18T11:22:55.559Z,4.24
2023-03-18T11:25:26.688Z,4.05
2023-03-18T11:27:59.007Z,3.95
2023-03-18T11:30:40.691Z,3.64
2023-03-18T11:33:10.639Z,4.12
2023-03-18T11:35:51.196Z,4.41
2023-03-18T11:38:29.748Z,4.65
2023-03-18T11:41:17.276Z,4.46
2023-03-18T11:44:18.125Z,4.36
2023-03-18T11:46:54.908Z,4.46
2023-03-18T11:49:24.131Z,4.55
2023-03-18T11:52:14.017Z,4.78
2023-03-18T11:54:46.832Z,4.67
2023-03-18T11:57:16.580Z,4.74
2023-03-18T12:00:05.411Z,4.65
2023-03-18T12:02:53.339Z,4.73
2023-03-18T12:05:37.453Z,4.43
2023-03-18T12:08:25.560Z,4.56
2023-03-18T12:11:06.266Z,4.20
2023-03-18T12:13:48.984Z,3.96
2023-03-18T12:16:27.815Z,4.00
2023-03-18T12:18:54.673Z,4.04
2023-03-18T12:21:48.685Z,4.17
2023-03-18T12:24:28.139Z,4.35
2023-03-18T12:27:00.926Z,4.30
2023-03-18T12:29:45.995Z,4.21
2023-03-18T12:32:46.526Z,4.26
2023-03-18T12:35:41.695Z,4.33
2023-03-18T12:38:26.252Z,4.35
2023-03-18T12:40:58.481Z,4.50
2023-03-18T12:43:28.379Z,4.74
2023-03-18T12:46:00.673Z,4.74
2023-03-18T12:48:43.575Z,4.81
2023-03-18T12:51:16.483Z,5.04
2023-03-18T12:53:46.396Z,5.14
2023-03-18T12:56:26.404Z,5.07
2023-03-18T12:59:09.566Z,4.95
2023-03-18T13:01:48.250Z,4.99
2023-03-18T13:04:23.156Z,4.90
2023-03-18T13:07:26.533Z,4.99
2023-03-18T13:09:59.604Z,5.27
2023-03-18T13:12:33.700Z,5.26
2023-03-18T13:15:07.781Z,5.25
2023-03-18T13:17:45.187Z,5.21
2023-03-18T13:20:15.612Z,5.16
2023-03-18T13:22:42.261Z,5.33
2023-03-18T13:25:21.882Z,5.48
2023-03-18T13:27:48.747Z,5.48
2023-03-18T13:30:45.196Z,5.47
2023-03-18T13:33:30.850Z,5.76
2023-03-18T13:36:05.786Z,5.34
2023-03-18T13:38:41.910Z,5.62
2023-03-18T13:41:25.654Z,5.65
2023-03-18T13:43:53.509Z,5.63
2023-03-18T13:46:23.863Z,5.73
2023-03-18T13:49:01.743Z,5.64
2023-03-18T13:51:28.916Z,5.68
2023-03-18T13:54:05.951Z,5.82
2023-03-18T13:56:46.045Z,5.81
2023-03-18T13:59:35.686Z,5.85
2023-03-18T14:02:28.422Z,5.95
2023-03-18T14:04:58.140Z,5.80
2023-03-18T14:07:26.556Z,5.75
2023-03-18T14:10:17.728Z,5.81
2023-03-18T14:12:48.050Z,5.68
2023-03-18T14:15:15.044Z,5.92
2023-03-18T14:17:53.465Z,5.97
2023-03-18T14:20:21.436Z,6.02
2023-03-18T14:22:54.911Z,6.10
2023-03-18T14:25:31.049Z,6.20
2023-03-18T14:28:07.477Z,6.18
2023-03-18T14:30:37.565Z,6.28
2023-03-18T14:33:24.427Z,6.18
2023-03-18T14:35:58.491Z,6.35
2023-03-18T14:38:28.282Z,6.55
2023-03-18T14:40:56.885Z,6.22
2023-03-18T14:43:35.765Z,6.48
2023-03-18T14:46:18.330Z,6.00
2023-03-18T14:48:45.375Z,6.12
2023-03-18T14:51:19.339Z,6.08
2023-03-18T14:54:05.901Z,6.14
2023-03-18T14:56:40.244Z,6.13
2023-03-18T14:59:08.133Z,6.15
2023-03-18T15:01:37.305Z,6.26
2023-03-18T15:04:05.280Z,6.03
2023-03-18T15:06:35.413Z,6.09
2023-03-18T15:09:08.490Z,6.07
2023-03-18T15:11:44.568Z,6.10
2023-03-18T15:14:27.392Z,6.11
2023-03-18T15:16:56.075Z,6.16
2023-03-18T15:19:23.289Z,6.05
2023-03-18T15:21:50.832Z,6.16
2023-03-18T15:24:21.095Z,6.14
2023-03-18T15:26:57.016Z,6.03
2023-03-18T15:29:31.569Z,6.00
2023-03-18T15:32:16.679Z,5.95
2023-03-18T15:34:46.386Z,5.86
2023-03-18T15:37:34.941Z,5.91
2023-03-18T15:40:31.303Z,5.72
2023-03-18T15:43:10.552Z,5.81
2023-03-18T15:45:41.666Z,5.61
2023-03-18T15:48:21.712Z,5.55
2023-03-18T15:50:53.651Z,5.58
2023-03-18T15:53:30.314Z,5.71
2023-03-18T15:55:59.444Z,5.47
2023-03-18T15:58:36.791Z,5.72
2023-03-18T16:01:04.466Z,5.66
2023-03-18T16:03:34.958Z,5.62
2023-03-18T16:06:05.457Z,5.64
2023-03-18T16:08:32.204Z,5.54
2023-03-18T16:11:02.067Z,5.46
2023-03-18T16:13:32.414Z,5.28
2023-03-18T16:15:59.284Z,5.07
2023-03-18T16:18:26.203Z,4.91
2023-03-18T16:20:54.071Z,4.79
2023-03-18T16:23:21.208Z,4.51
2023-03-18T16:25:52.868Z,4.25
2023-03-18T16:28:22.689Z,4.15
2023-03-18T16:30:52.163Z,4.05
2023-03-18T16:33:20.284Z,4.14
2023-03-18T16:35:54.055Z,3.93
2023-03-18T16:38:20.962Z,3.71
2023-03-18T16:40:47.692Z,3.43
2023-03-18T16:43:19.849Z,3.83
2023-03-18T16:45:47.488Z,3.78
2023-03-18T16:48:17.436Z,3.69
2023-03-18T16:50:47.974Z,3.49
2023-03-18T16:53:29.739Z,3.58
2023-03-18T16:56:01.597Z,3.43
2023-03-18T16:58:33.137Z,3.41
2023-03-18T17:01:00.222Z,3.35
2023-03-18T17:03:27.728Z,3.36
2023-03-18T17:05:54.672Z,3.18
2023-03-18T17:08:22.173Z,3.23
2023-03-18T17:10:54.193Z,3.15
2023-03-18T17:13:23.651Z,3.10
2023-03-18T17:15:51.110Z,3.05
2023-03-18T17:18:20.736Z,2.99
2023-03-18T17:20:48.252Z,2.78
2023-03-18T17:23:22.821Z,2.86
2023-03-18T17:25:52.657Z,2.83
2023-03-18T17:28:39.851Z,2.80
2023-03-18T17:31:07.363Z,2.71
2023-03-18T17:33:35.691Z,2.60
2023-03-18T17:36:02.964Z,2.53
2023-03-18T17:38:35.229Z,2.40
2023-03-18T17:41:11.224Z,2.51
2023-03-18T17:43:38.187Z,2.43
2023-03-18T17:46:06.235Z,2.63
2023-03-18T17:48:35.072Z,2.56
2023-03-18T17:51:07.593Z,2.48
2023-03-18T17:53:37.480Z,2.41
2023-03-18T17:56:10.006Z,2.35
2023-03-18T17:58:37.007Z,2.29
2023-03-18T18:01:26.822Z,2.31
2023-03-18T18:03:55.022Z,2.07
2023-03-18T18:06:24.220Z,2.22
2023-03-18T18:08:51.701Z,2.13
2023-03-18T18:11:24.137Z,2.12
2023-03-18T18:13:52.547Z,2.10
2023-03-18T18:16:19.844Z,2.07
2023-03-18T18:18:49.530Z,1.97
2023-03-18T18:21:20.186Z,1.90
2023-03-18T18:23:47.366Z,1.80
2023-03-18T18:26:19.862Z,1.89
2023-03-18T18:28:48.891Z,1.90
2023-03-18T18:31:20.139Z,1.83
2023-03-18T18:33:50.271Z,1.67
2023-03-18T18:36:18.236Z,1.67
2023-03-18T18:38:45.172Z,1.55
2023-03-18T18:41:11.941Z,1.67
2023-03-18T18:43:38.737Z,1.60
2023-03-18T18:46:10.454Z,1.78
2023-03-18T18:48:39.219Z,1.80
2023-03-18T18:51:06.150Z,1.77
2023-03-18T18:53:36.794Z,1.69
2023-03-18T18:56:23.537Z,1.59
2023-03-18T18:58:51.819Z,1.55
2023-03-18T19:01:19.056Z,1.44
2023-03-18T19:03:49.657Z,1.42
2023-03-18T19:06:31.595Z,1.43
2023-03-18T19:09:03.757Z,1.35
2023-03-18T19:11:30.431Z,1.25
2023-03-18T19:14:20.416Z,1.20
2023-03-18T19:16:48.355Z,1.23
2023-03-18T19:19:19.041Z,1.17
2023-03-18T19:21:46.729Z,1.14
2023-03-18T19:24:43.904Z,1.09
2023-03-18T19:27:28.297Z,0.99
2023-03-18T19:29:58.303Z,0.93
2023-03-18T19:32:25.762Z,0.89
2023-03-18T19:34:53.662Z,0.77
2023-03-18T19:37:29.381Z,0.82
2023-03-18T19:39:57.746Z,0.73
2023-03-18T19:42:25.172Z,0.72
2023-03-18T19:44:52.124Z,0.70
2023-03-18T19:47:27.636Z,0.51
2023-03-18T19:49:54.349Z,0.63
2023-03-18T19:52:23.871Z,0.63
2023-03-18T19:54:51.574Z,0.58
2023-03-18T19:57:27.703Z,0.54
2023-03-18T19:59:56.544Z,0.37
2023-03-18T20:02:28.815Z,0.50
2023-03-18T20:04:58.220Z,0.54
2023-03-18T20:07:27.167Z,0.39
2023-03-18T20:09:54.423Z,0.48
2023-03-18T20:12:37.267Z,0.48
2023-03-18T20:15:06.005Z,0.26
2023-03-18T20:17:37.635Z,0.25
2023-03-18T20:20:06.221Z,0.43
2023-03-18T20:22:35.142Z,0.53
2023-03-18T20:25:03.614Z,0.58
2023-03-18T20:27:32.787Z,0.46
2023-03-18T20:29:59.758Z,0.41
2023-03-18T20:32:26.844Z,0.58
2023-03-18T20:34:53.624Z,0.52
2023-03-18T20:37:34.811Z,0.49
2023-03-18T20:40:02.265Z,0.70
2023-03-18T20:42:29.070Z,0.82
2023-03-18T20:44:56.081Z,0.69
2023-03-18T20:47:22.820Z,0.70
2023-03-18T20:49:49.719Z,0.66
2023-03-18T20:52:28.174Z,0.62
2023-03-18T20:54:56.721Z,0.71
2023-03-18T20:57:24.040Z,0.63
2023-03-18T20:59:51.518Z,0.75
2023-03-18T21:02:31.135Z,0.83
2023-03-18T21:04:59.035Z,0.66
2023-03-18T21:07:26.374Z,0.74
2023-03-18T21:09:53.315Z,0.68
2023-03-18T21:12:21.562Z,0.74
2023-03-18T21:14:49.496Z,0.70
2023-03-18T21:17:34.443Z,0.62
2023-03-18T21:20:15.213Z,0.68
2023-03-18T21:22:48.631Z,0.63
2023-03-18T21:25:24.216Z,0.48
2023-03-18T21:27:51.676Z,0.43
2023-03-18T21:30:22.084Z,0.19
2023-03-18T21:32:50.662Z,0.19
2023-03-18T21:35:20.611Z,0.05
2023-03-18T21:37:48.160Z,-0.13
2023-03-18T21:40:19.823Z,0.00
2023-03-18T21:42:46.669Z,0.01
2023-03-18T21:45:15.485Z,-0.12
2023-03-18T21:47:42.419Z,-0.25
2023-03-18T21:50:19.663Z,-0.10
2023-03-18T21:52:47.662Z,0.01
2023-03-18T21:55:14.690Z,0.15
2023-03-18T21:57:41.386Z,0.17
2023-03-18T22:00:20.014Z,0.44
2023-03-18T22:02:47.263Z,0.55
2023-03-18T22:05:22.958Z,0.63
2023-03-18T22:07:50.939Z,0.75
2023-03-18T22:10:23.039Z,0.80
2023-03-18T22:12:50.542Z,0.80
2023-03-18T22:15:36.461Z,0.91
2023-03-18T22:18:03.692Z,0.92
2023-03-18T22:20:30.608Z,1.02
2023-03-18T22:22:58.210Z,1.16
2023-03-18T22:25:37.327Z,1.27
2023-03-18T22:28:04.313Z,1.08
2023-03-18T22:30:32.298Z,1.27
2023-03-18T22:33:00.740Z,1.22
2023-03-18T22:35:29.069Z,1.29
2023-03-18T22:37:56.236Z,1.35
2023-03-18T22:40:25.703Z,1.34
2023-03-18T22:42:54.352Z,1.33
2023-03-18T22:45:34.355Z,1.28
2023-03-18T22:48:02.915Z,1.41
2023-03-18T22:50:34.398Z,1.45
2023-03-18T22:53:04.116Z,1.40
2023-03-18T22:55:36.272Z,1.42
2023-03-18T22:58:02.975Z,1.51
2023-03-18T23:00:41.674Z,1.42
2023-03-18T23:03:17.665Z,1.51
2023-03-18T23:05:47.019Z,1.54
2023-03-18T23:08:14.443Z,1.54
2023-03-18T23:10:42.279Z,1.44
2023-03-18T23:13:34.732Z,1.40
2023-03-18T23:16:04.438Z,1.60
2023-03-18T23:18:31.359Z,1.55
2023-03-18T23:20:58.472Z,1.71
2023-03-18T23:23:25.258Z,1.76
2023-03-18T23:25:52.577Z,1.69
2023-03-18T23:28:19.637Z,1.69
2023-03-18T23:30:48.925Z,1.79
2023-03-18T23:33:16.937Z,1.68
2023-03-18T23:35:44.520Z,1.65
2023-03-18T23:38:11.698Z,1.67
2023-03-18T23:40:38.678Z,1.55
2023-03-18T23:43:05.727Z,1.73
2023-03-18T23:45:32.855Z,1.63
2023-03-18T23:47:59.922Z,1.85
2023-03-18T23:50:26.682Z,1.88
2023-03-18T23:52:53.393Z,1.71
2023-03-18T23:55:33.438Z,1.90
2023-03-18T23:58:01.419Z,1.89
